Time;durP1;ratioP1;P1;durP2;ratioP2;P2;SDS_P1;SDS_P2;PMS_P1;PMS_P2;Temp;Humidity;BMP_temperature;BMP_pressure;BME280_temperature;BME280_humidity;BME280_pressure;Samples;Min_cycle;Max_cycle;Signal;HPM_P1;HPM_P2
2022/03/30 00:00:18;;;;;;;71.00;25.83;;;11.20;99.90;;;;;;5015262;28;20025;-60
2022/03/30 00:02:44;;;;;;;44.00;17.17;;;11.10;99.90;;;;;;5016477;28;20026;-59
2022/03/30 00:05:10;;;;;;;37.03;17.15;;;11.10;99.90;;;;;;5015212;28;20029;-59
2022/03/30 00:07:36;;;;;;;34.78;14.65;;;11.20;99.90;;;;;;5015226;28;20026;-60
2022/03/30 00:10:04;;;;;;;38.63;16.25;;;11.30;99.90;;;;;;5016651;28;20033;-60
2022/03/30 00:12:30;;;;;;;41.17;16.77;;;11.30;99.90;;;;;;5016227;28;20369;-60
2022/03/30 00:14:56;;;;;;;42.45;18.00;;;11.30;99.90;;;;;;5016135;28;20030;-60
2022/03/30 00:17:22;;;;;;;39.88;17.38;;;11.30;99.90;;;;;;5016105;28;20026;-60
2022/03/30 00:19:47;;;;;;;60.65;22.40;;;11.20;99.90;;;;;;5014905;28;20114;-60
2022/03/30 00:22:13;;;;;;;39.15;17.13;;;11.30;99.90;;;;;;5016127;28;20022;-58
2022/03/30 00:24:43;;;;;;;35.30;16.92;;;11.10;99.90;;;;;;5016117;28;20030;-60
2022/03/30 00:27:09;;;;;;;50.78;20.10;;;11.10;99.90;;;;;;5014471;28;20022;-60
2022/03/30 00:29:35;;;;;;;38.67;17.05;;;10.90;99.90;;;;;;5016176;28;20034;-60
2022/03/30 00:32:01;;;;;;;35.60;17.00;;;10.80;99.90;;;;;;5015000;28;20026;-60
2022/03/30 00:34:26;;;;;;;33.30;15.15;;;10.90;99.90;;;;;;5016390;28;20061;-60
2022/03/30 00:36:52;;;;;;;42.75;16.05;;;10.80;99.90;;;;;;5014569;28;20117;-60
2022/03/30 00:39:18;;;;;;;38.47;17.95;;;10.80;99.90;;;;;;5014534;28;20029;-60
2022/03/30 00:41:44;;;;;;;44.33;17.95;;;10.80;99.90;;;;;;5014531;28;20025;-60
2022/03/30 00:44:12;;;;;;;35.55;14.85;;;10.80;99.90;;;;;;5014464;28;20030;-60
2022/03/30 00:46:38;;;;;;;40.47;16.27;;;10.90;99.90;;;;;;5014332;28;20480;-60
2022/03/30 00:49:05;;;;;;;31.95;15.15;;;10.80;99.90;;;;;;5015560;28;20492;-60
2022/03/30 00:51:31;;;;;;;40.65;16.42;;;10.80;99.90;;;;;;5015872;28;20030;-60
2022/03/30 00:53:57;;;;;;;38.15;15.90;;;10.90;99.90;;;;;;5014496;28;20113;-60
2022/03/30 00:56:24;;;;;;;39.30;16.65;;;10.80;99.90;;;;;;5013953;28;20034;-60
2022/03/30 00:58:51;;;;;;;39.45;16.65;;;10.70;99.90;;;;;;5014187;28;20029;-60
2022/03/30 01:01:19;;;;;;;42.45;16.00;;;10.70;99.90;;;;;;5015337;28;20022;-60
2022/03/30 01:03:44;;;;;;;36.60;15.82;;;10.80;99.90;;;;;;5014929;28;20163;-60
2022/03/30 01:06:10;;;;;;;31.42;14.38;;;10.70;99.90;;;;;;5014715;28;20116;-60
2022/03/30 01:08:36;;;;;;;39.35;16.33;;;10.70;99.90;;;;;;5015083;28;20018;-59
2022/03/30 01:11:02;;;;;;;37.58;16.23;;;10.50;99.90;;;;;;5015148;28;20021;-60
2022/03/30 01:13:27;;;;;;;40.08;17.83;;;10.40;99.90;;;;;;5014230;28;20124;-60
2022/03/30 01:15:53;;;;;;;38.35;17.27;;;10.10;99.90;;;;;;5013979;28;20116;-59
2022/03/30 01:18:19;;;;;;;38.85;17.05;;;9.80;99.90;;;;;;5014963;28;20029;-60
2022/03/30 01:20:49;;;;;;;40.03;17.83;;;9.70;99.90;;;;;;5013965;28;20030;-59
2022/03/30 01:23:15;;;;;;;45.45;19.08;;;9.50;99.90;;;;;;5014030;28;20068;-59
2022/03/30 01:25:41;;;;;;;37.65;16.77;;;9.50;99.90;;;;;;5013747;28;20034;-60
2022/03/30 01:28:07;;;;;;;45.55;19.00;;;9.50;99.90;;;;;;5013520;28;20026;-60
2022/03/30 01:33:17;;;;;;;42.42;17.65;;;9.60;99.90;;;;;;5015235;28;20125;-60
2022/03/30 01:35:42;;;;;;;42.70;17.73;;;9.50;99.90;;;;;;5014775;28;20571;-59
2022/03/30 01:38:09;;;;;;;43.55;17.10;;;9.50;99.90;;;;;;5013305;28;20028;-58
2022/03/30 01:40:35;;;;;;;44.42;18.10;;;9.30;99.90;;;;;;5014294;28;20022;-59
2022/03/30 01:43:01;;;;;;;52.10;19.13;;;9.20;99.90;;;;;;5013306;28;20041;-59
2022/03/30 01:45:27;;;;;;;41.22;16.83;;;9.20;99.90;;;;;;5014380;28;20056;-59
2022/03/30 01:47:57;;;;;;;44.67;18.75;;;9.00;99.90;;;;;;5014405;28;20041;-59
2022/03/30 01:50:25;;;;;;;43.97;18.80;;;9.00;99.90;;;;;;5014462;28;20022;-60
2022/03/30 01:52:51;;;;;;;42.03;18.90;;;8.90;99.90;;;;;;5014357;28;20049;-59
2022/03/30 01:55:17;;;;;;;44.95;16.58;;;8.70;99.90;;;;;;5013065;28;20029;-60
2022/03/30 01:57:43;;;;;;;41.80;17.75;;;9.00;99.90;;;;;;5012918;28;20038;-60
2022/03/30 02:00:12;;;;;;;50.97;18.88;;;9.10;99.90;;;;;;5014290;28;20026;-60
2022/03/30 02:02:39;;;;;;;45.42;18.30;;;9.00;99.90;;;;;;5014455;28;20029;-59
2022/03/30 02:05:06;;;;;;;41.70;18.20;;;9.00;99.90;;;;;;5014142;28;20026;-60
2022/03/30 02:07:31;;;;;;;39.75;17.65;;;8.90;99.90;;;;;;5012757;28;20163;-60
2022/03/30 02:09:57;;;;;;;39.13;16.67;;;9.00;99.90;;;;;;5014068;28;20097;-60
2022/03/30 02:12:23;;;;;;;45.58;16.27;;;9.10;99.90;;;;;;5014098;28;20506;-60
2022/03/30 02:14:51;;;;;;;36.38;17.30;;;9.10;99.90;;;;;;5013158;28;20492;-60
2022/03/30 02:17:18;;;;;;;41.38;18.77;;;9.20;99.90;;;;;;5013968;28;20388;-60
2022/03/30 02:19:45;;;;;;;39.72;17.55;;;9.10;99.90;;;;;;5012725;28;20026;-60
2022/03/30 02:22:10;;;;;;;39.22;18.17;;;9.20;99.90;;;;;;5014041;28;20118;-60
2022/03/30 02:24:36;;;;;;;36.10;16.48;;;9.30;99.90;;;;;;5014163;28;20053;-60
2022/03/30 02:27:02;;;;;;;38.25;16.50;;;9.50;99.90;;;;;;5012792;28;20029;-60
2022/03/30 02:29:28;;;;;;;43.65;18.20;;;9.50;99.90;;;;;;5013784;28;20104;-60
2022/03/30 02:31:55;;;;;;;43.90;18.20;;;9.60;99.90;;;;;;5012524;28;20133;-60
2022/03/30 02:34:21;;;;;;;41.85;18.85;;;9.60;99.90;;;;;;5012561;28;20049;-59
2022/03/30 02:36:48;;;;;;;51.92;19.30;;;9.50;99.90;;;;;;5012565;28;20022;-60
2022/03/30 02:39:15;;;;;;;41.50;18.23;;;9.50;99.90;;;;;;5013342;28;20057;-57
2022/03/30 02:41:41;;;;;;;37.05;16.92;;;9.50;99.90;;;;;;5013120;28;20484;-59
2022/03/30 02:44:08;;;;;;;43.92;18.33;;;9.60;99.90;;;;;;5012373;28;20022;-60
2022/03/30 02:46:34;;;;;;;43.30;17.63;;;9.50;99.90;;;;;;5012366;28;20032;-60
2022/03/30 02:49:00;;;;;;;37.65;15.77;;;9.40;99.90;;;;;;5012867;28;20092;-60
2022/03/30 02:51:27;;;;;;;49.55;19.35;;;9.50;99.90;;;;;;5012258;28;20022;-60
2022/03/30 02:53:54;;;;;;;44.60;17.65;;;9.40;99.90;;;;;;5013538;28;20018;-60
2022/03/30 02:56:19;;;;;;;40.72;16.90;;;9.50;99.90;;;;;;5013794;28;20069;-60
2022/03/30 02:58:46;;;;;;;45.92;19.13;;;9.60;99.90;;;;;;5013766;28;20080;-60
2022/03/30 03:01:11;;;;;;;44.92;18.38;;;9.50;99.90;;;;;;5013146;28;20031;-60
2022/03/30 03:03:37;;;;;;;38.80;16.33;;;9.60;99.90;;;;;;5013438;28;20056;-57
2022/03/30 03:06:03;;;;;;;47.42;19.15;;;9.50;99.90;;;;;;5013339;28;20033;-60
2022/03/30 03:08:29;;;;;;;45.50;19.55;;;9.40;99.90;;;;;;5045098;22;20053;-48
2022/03/30 03:10:58;;;;;;;49.40;19.30;;;9.20;99.90;;;;;;5031965;28;20021;-50
2022/03/30 03:13:25;;;;;;;43.45;18.70;;;9.10;99.90;;;;;;5032535;28;20067;-52
2022/03/30 03:15:51;;;;;;;41.88;18.50;;;9.10;99.90;;;;;;5032253;28;20028;-54
2022/03/30 03:18:18;;;;;;;43.45;17.75;;;9.20;99.90;;;;;;5031690;28;20029;-51
2022/03/30 03:20:45;;;;;;;43.85;18.13;;;9.30;99.90;;;;;;5031823;28;20043;-48
2022/03/30 03:23:12;;;;;;;38.75;17.73;;;9.40;99.90;;;;;;5031719;28;20022;-52
2022/03/30 03:25:40;;;;;;;43.85;18.42;;;9.40;99.90;;;;;;5031694;28;20034;-50
2022/03/30 03:28:09;;;;;;;39.58;18.25;;;9.30;99.90;;;;;;5032940;28;20021;-51
2022/03/30 03:30:35;;;;;;;38.92;17.92;;;9.40;99.90;;;;;;5032024;28;20503;-51
2022/03/30 03:33:02;;;;;;;41.97;18.55;;;9.40;99.90;;;;;;5031589;28;20550;-50
2022/03/30 03:35:28;;;;;;;43.53;20.08;;;9.40;99.90;;;;;;5032925;28;20052;-50
2022/03/30 03:37:54;;;;;;;43.70;19.85;;;9.40;99.90;;;;;;5033204;28;20568;-48
2022/03/30 03:40:20;;;;;;;43.10;17.63;;;9.40;99.90;;;;;;5031654;28;20133;-48
2022/03/30 03:42:46;;;;;;;46.42;20.40;;;9.50;99.90;;;;;;5032420;28;20112;-50
2022/03/30 03:45:12;;;;;;;44.97;18.48;;;9.50;99.90;;;;;;5031545;28;20071;-48
2022/03/30 03:47:38;;;;;;;51.28;19.08;;;9.60;99.90;;;;;;5031816;28;20018;-48
2022/03/30 03:50:05;;;;;;;47.05;18.23;;;9.60;99.90;;;;;;5031557;28;20026;-50
2022/03/30 03:52:31;;;;;;;47.55;18.67;;;9.50;99.90;;;;;;5031487;28;20032;-50
2022/03/30 03:54:57;;;;;;;45.33;20.45;;;9.50;99.90;;;;;;5032815;28;20102;-51
2022/03/30 03:57:23;;;;;;;48.33;20.95;;;9.40;99.90;;;;;;5032975;28;20036;-49
2022/03/30 03:59:48;;;;;;;46.97;19.15;;;9.30;99.90;;;;;;5032931;28;20022;-49
2022/03/30 04:02:14;;;;;;;55.35;21.48;;;9.40;99.90;;;;;;5031399;28;20028;-50
2022/03/30 04:04:40;;;;;;;60.10;22.60;;;9.30;99.90;;;;;;5034890;28;20128;-48
2022/03/30 04:07:06;;;;;;;46.22;19.88;;;9.40;99.90;;;;;;5036465;28;20096;-51
2022/03/30 04:09:32;;;;;;;45.60;19.70;;;9.20;99.90;;;;;;5034779;28;20112;-52
2022/03/30 04:11:58;;;;;;;63.55;23.17;;;9.00;99.90;;;;;;5036137;28;20097;-54
2022/03/30 04:14:24;;;;;;;50.15;19.70;;;8.90;99.90;;;;;;5035129;28;20108;-49
2022/03/30 04:16:49;;;;;;;51.58;21.52;;;8.90;99.90;;;;;;5036017;28;20455;-51
2022/03/30 04:19:15;;;;;;;48.30;21.20;;;8.60;99.90;;;;;;5035585;28;20026;-50
2022/03/30 04:21:42;;;;;;;47.30;20.92;;;8.70;99.90;;;;;;5034981;28;20014;-50
2022/03/30 04:24:08;;;;;;;44.97;19.20;;;8.70;99.90;;;;;;5034660;28;20025;-50
2022/03/30 04:26:34;;;;;;;53.35;21.92;;;8.90;99.90;;;;;;5034532;28;20060;-50
2022/03/30 04:29:00;;;;;;;45.85;19.38;;;8.70;99.90;;;;;;5034439;28;20021;-50
2022/03/30 04:31:25;;;;;;;46.78;18.65;;;8.80;99.90;;;;;;5035798;28;20025;-49
2022/03/30 04:33:53;;;;;;;46.67;19.50;;;8.70;99.90;;;;;;5035992;28;20467;-48
2022/03/30 04:36:19;;;;;;;49.47;20.23;;;8.70;99.90;;;;;;5035617;28;20021;-54
2022/03/30 04:38:45;;;;;;;51.72;21.38;;;8.70;99.90;;;;;;5034629;28;20076;-54
2022/03/30 04:41:10;;;;;;;47.03;20.35;;;8.70;99.90;;;;;;5034395;28;20025;-50
2022/03/30 04:43:36;;;;;;;57.25;21.17;;;8.80;99.90;;;;;;5034581;28;20025;-52
2022/03/30 04:46:02;;;;;;;58.40;22.13;;;8.70;99.90;;;;;;5034163;28;20021;-50
2022/03/30 04:48:27;;;;;;;46.28;21.38;;;8.50;99.90;;;;;;5034070;28;20018;-53
2022/03/30 04:50:53;;;;;;;48.45;20.88;;;8.50;99.90;;;;;;5034422;28;20112;-55
2022/03/30 04:53:19;;;;;;;50.00;19.92;;;8.40;99.90;;;;;;5035368;28;20052;-50
2022/03/30 04:55:45;;;;;;;53.65;21.67;;;8.30;99.90;;;;;;5034057;28;20030;-53
2022/03/30 04:58:11;;;;;;;55.42;22.20;;;8.20;99.90;;;;;;5034049;28;20056;-49
2022/03/30 05:00:37;;;;;;;54.70;21.27;;;8.00;99.90;;;;;;5033948;28;20053;-54
2022/03/30 05:03:03;;;;;;;53.40;22.73;;;7.80;99.90;;;;;;5035169;28;20083;-51
2022/03/30 05:05:29;;;;;;;51.10;20.60;;;7.80;99.90;;;;;;5033805;28;20104;-52
2022/03/30 05:07:58;;;;;;;54.47;22.67;;;7.80;99.90;;;;;;5033594;28;20053;-54
2022/03/30 05:10:24;;;;;;;60.97;21.52;;;7.80;99.90;;;;;;5033759;28;20025;-55
2022/03/30 05:12:50;;;;;;;58.08;22.92;;;7.70;99.90;;;;;;5035015;28;20025;-50
2022/03/30 05:15:16;;;;;;;57.42;22.77;;;7.80;99.90;;;;;;5032600;28;20033;-54
2022/03/30 05:17:44;;;;;;;53.85;22.90;;;7.70;99.90;;;;;;5035130;28;20076;-52
2022/03/30 05:20:11;;;;;;;50.67;21.08;;;7.60;99.90;;;;;;5035140;28;20126;-49
2022/03/30 05:22:37;;;;;;;60.03;23.40;;;7.70;99.90;;;;;;5033516;28;20056;-49
2022/03/30 05:25:03;;;;;;;56.47;21.92;;;7.60;99.90;;;;;;5033462;28;20475;-51
2022/03/30 05:27:28;;;;;;;65.07;23.70;;;7.40;99.90;;;;;;5033464;28;20029;-51
2022/03/30 05:29:54;;;;;;;56.88;21.50;;;7.40;99.90;;;;;;5033447;28;20026;-49
2022/03/30 05:32:20;;;;;;;65.30;23.88;;;7.30;99.90;;;;;;5033374;28;20025;-50
2022/03/30 05:34:45;;;;;;;57.67;22.98;;;7.40;99.90;;;;;;5033281;28;20034;-53
2022/03/30 05:37:11;;;;;;;51.42;21.55;;;7.50;99.90;;;;;;5033595;28;20112;-54
2022/03/30 05:39:41;;;;;;;54.17;20.95;;;7.60;99.90;;;;;;5033125;28;20039;-50
2022/03/30 05:42:07;;;;;;;55.15;22.15;;;7.60;99.90;;;;;;5033225;28;20056;-53
2022/03/30 05:44:33;;;;;;;56.97;23.67;;;7.70;99.90;;;;;;5033371;28;20059;-52
2022/03/30 05:46:58;;;;;;;53.80;21.50;;;7.60;99.90;;;;;;5033400;28;20029;-52
2022/03/30 05:49:27;;;;;;;49.30;20.38;;;7.80;99.90;;;;;;5033306;28;20029;-51
2022/03/30 05:51:52;;;;;;;48.30;19.67;;;7.90;99.90;;;;;;5032976;28;20476;-51
2022/03/30 05:54:18;;;;;;;47.20;19.70;;;7.90;99.90;;;;;;5034498;28;20032;-50
2022/03/30 05:57:02;;;;;;;59.35;22.60;;;8.00;99.90;;;;;;5033241;28;20029;-51
2022/03/30 05:59:29;;;;;;;61.15;22.25;;;8.10;99.90;;;;;;5034125;28;20033;-54
2022/03/30 06:01:55;;;;;;;51.13;20.83;;;8.30;99.90;;;;;;5033097;28;20022;-50
2022/03/30 06:04:20;;;;;;;52.90;20.90;;;8.30;99.90;;;;;;5032769;28;20025;-51
2022/03/30 06:06:46;;;;;;;59.45;21.55;;;8.30;99.90;;;;;;5033516;28;20021;-53
2022/03/30 06:09:12;;;;;;;48.67;20.50;;;8.30;99.90;;;;;;5034184;28;20033;-53
2022/03/30 06:11:37;;;;;;;48.08;19.63;;;8.30;99.90;;;;;;5032653;28;20021;-55
2022/03/30 06:14:03;;;;;;;55.65;21.00;;;8.40;99.90;;;;;;5032561;28;20037;-54
2022/03/30 06:16:29;;;;;;;58.17;21.98;;;8.20;99.90;;;;;;5033786;28;20029;-51
2022/03/30 06:18:55;;;;;;;53.08;21.38;;;8.30;99.90;;;;;;5033727;28;20059;-50
2022/03/30 06:21:32;;;;;;;53.13;19.58;;;8.30;99.90;;;;;;5032383;28;20022;-50
2022/03/30 06:24:01;;;;;;;46.58;18.83;;;8.30;99.90;;;;;;5032448;28;20051;-48
2022/03/30 06:26:27;;;;;;;49.50;20.23;;;8.20;99.90;;;;;;5032541;28;20036;-47
2022/03/30 06:28:53;;;;;;;51.10;21.00;;;8.20;99.90;;;;;;5032265;28;20387;-51
2022/03/30 06:31:18;;;;;;;52.30;20.13;;;8.20;99.90;;;;;;5032685;28;20116;-54
2022/03/30 06:33:45;;;;;;;50.80;20.30;;;8.10;99.90;;;;;;5033156;28;20047;-56
2022/03/30 06:36:11;;;;;;;51.83;20.90;;;8.20;99.90;;;;;;5033776;28;20163;-56
2022/03/30 06:38:36;;;;;;;48.17;19.10;;;8.10;99.90;;;;;;5033404;28;20476;-56
2022/03/30 06:41:03;;;;;;;49.42;20.52;;;8.10;99.90;;;;;;5033294;28;20025;-55
2022/03/30 06:43:29;;;;;;;52.25;20.42;;;8.30;99.90;;;;;;5032450;28;20048;-56
2022/03/30 06:45:55;;;;;;;50.53;20.20;;;8.40;99.90;;;;;;5032183;28;20021;-56
2022/03/30 06:48:21;;;;;;;51.83;20.63;;;8.50;99.90;;;;;;5032016;28;20026;-56
2022/03/30 06:50:48;;;;;;;48.90;20.33;;;8.50;99.90;;;;;;5032530;28;20093;-57
2022/03/30 06:53:14;;;;;;;50.90;19.60;;;8.60;99.90;;;;;;5032061;28;20021;-55
2022/03/30 06:55:40;;;;;;;46.55;20.58;;;8.70;99.90;;;;;;5032000;28;20378;-53
2022/03/30 06:58:06;;;;;;;44.58;18.83;;;8.80;99.90;;;;;;5033233;28;20025;-50
2022/03/30 07:00:32;;;;;;;56.50;20.67;;;9.00;99.90;;;;;;5033232;28;20030;-54
2022/03/30 07:02:58;;;;;;;42.72;18.33;;;9.10;99.90;;;;;;5032277;28;20120;-51
2022/03/30 07:05:23;;;;;;;48.13;19.55;;;9.00;99.90;;;;;;5032710;28;20033;-52
2022/03/30 07:10:33;;;;;;;46.03;19.83;;;8.80;99.90;;;;;;5031114;28;20033;-55
2022/03/30 07:13:03;;;;;;;56.53;20.20;;;8.90;99.90;;;;;;5049602;28;20026;-50
2022/03/30 07:15:30;;;;;;;49.25;19.40;;;8.80;99.90;;;;;;5048480;28;20033;-53
2022/03/30 07:17:58;;;;;;;51.38;19.60;;;8.90;99.90;;;;;;5048418;28;20025;-50
2022/03/30 07:20:26;;;;;;;45.42;19.25;;;8.80;99.90;;;;;;5033056;28;20028;-51
2022/03/30 07:22:52;;;;;;;47.70;20.35;;;8.80;99.90;;;;;;5049553;28;20021;-55
2022/03/30 07:25:20;;;;;;;46.90;19.13;;;8.90;99.90;;;;;;5033095;28;20112;-49
2022/03/30 07:27:49;;;;;;;51.83;19.92;;;9.00;99.90;;;;;;5033004;28;20025;-52
2022/03/30 07:30:16;;;;;;;55.05;19.77;;;9.10;99.90;;;;;;5048344;28;20022;-49
2022/03/30 07:32:45;;;;;;;57.00;21.40;;;9.20;99.90;;;;;;5048379;28;20034;-56
2022/03/30 07:35:13;;;;;;;51.70;19.75;;;9.30;99.90;;;;;;5048267;28;20022;-56
2022/03/30 07:37:40;;;;;;;46.08;19.35;;;9.40;99.90;;;;;;5033944;28;20490;-53
2022/03/30 07:40:08;;;;;;;47.55;17.48;;;9.60;99.90;;;;;;5052131;28;20033;-54
2022/03/30 07:42:34;;;;;;;42.20;18.08;;;9.80;99.90;;;;;;5052506;28;20112;-53
2022/03/30 07:45:00;;;;;;;38.17;16.95;;;9.90;99.90;;;;;;5035753;28;20124;-56
2022/03/30 07:47:25;;;;;;;52.08;18.92;;;9.90;99.90;;;;;;5052403;28;20060;-54
2022/03/30 07:49:52;;;;;;;45.95;19.60;;;9.80;99.90;;;;;;5051844;28;20025;-56
2022/03/30 07:52:20;;;;;;;41.45;18.17;;;9.80;99.90;;;;;;5036539;28;20025;-53
2022/03/30 07:54:47;;;;;;;44.95;17.80;;;9.80;99.90;;;;;;5036718;28;20021;-52
2022/03/30 07:57:13;;;;;;;36.92;16.52;;;9.90;99.90;;;;;;5051829;28;20028;-52
2022/03/30 07:59:39;;;;;;;41.75;17.98;;;9.90;99.90;;;;;;5052085;28;20112;-54
2022/03/30 08:02:04;;;;;;;45.08;17.67;;;9.90;99.90;;;;;;5051565;28;20029;-54
2022/03/30 08:04:30;;;;;;;36.03;15.23;;;9.90;99.90;;;;;;5036310;28;20068;-52
2022/03/30 08:06:56;;;;;;;36.72;16.23;;;10.00;99.90;;;;;;5051906;28;20032;-56
2022/03/30 08:09:22;;;;;;;41.58;17.55;;;10.10;99.90;;;;;;5036315;28;20087;-56
2022/03/30 08:11:48;;;;;;;44.88;18.08;;;9.80;99.90;;;;;;5051887;28;20033;-55
2022/03/30 08:14:13;;;;;;;42.53;18.40;;;10.00;99.90;;;;;;5036422;28;20045;-52
2022/03/30 08:16:39;;;;;;;43.83;17.50;;;9.90;99.90;;;;;;5051756;28;20025;-56
2022/03/30 08:19:06;;;;;;;38.60;17.00;;;10.00;99.90;;;;;;5035952;28;20024;-54
2022/03/30 08:24:15;;;;;;;44.67;18.13;;;10.20;99.90;;;;;;5036589;28;20079;-52
2022/03/30 08:26:41;;;;;;;42.83;19.05;;;10.20;99.90;;;;;;5034507;28;20030;-51
2022/03/30 08:29:08;;;;;;;35.40;14.52;;;10.30;99.90;;;;;;5034125;28;20155;-49
2022/03/30 08:31:34;;;;;;;37.13;17.08;;;10.30;99.90;;;;;;5035157;28;20022;-55
2022/03/30 08:34:00;;;;;;;40.13;18.05;;;10.60;99.90;;;;;;5035650;28;20022;-56
2022/03/30 08:36:29;;;;;;;48.67;18.70;;;10.40;99.90;;;;;;5050690;28;20033;-55
2022/03/30 08:38:59;;;;;;;41.97;18.23;;;10.30;99.90;;;;;;5051199;28;20021;-54
2022/03/30 08:41:25;;;;;;;39.67;18.05;;;10.30;99.90;;;;;;5050905;28;20029;-51
2022/03/30 08:43:52;;;;;;;40.28;17.33;;;10.10;99.90;;;;;;5035542;28;20025;-53
2022/03/30 08:46:18;;;;;;;38.42;16.60;;;10.00;99.90;;;;;;5051163;28;20055;-55
2022/03/30 08:48:44;;;;;;;39.28;17.15;;;10.00;99.90;;;;;;5050907;28;20029;-51
2022/03/30 08:51:10;;;;;;;34.67;15.85;;;10.20;99.90;;;;;;5050778;28;20018;-52
2022/03/30 08:53:36;;;;;;;37.30;16.90;;;10.40;99.90;;;;;;5035407;28;20067;-55
2022/03/30 08:56:03;;;;;;;40.67;18.23;;;10.70;99.90;;;;;;5050709;28;20394;-55
2022/03/30 08:58:29;;;;;;;37.78;17.15;;;10.50;99.90;;;;;;5035424;28;20112;-55
2022/03/30 09:01:07;;;;;;;34.35;15.70;;;10.80;99.90;;;;;;5035433;28;20056;-54
2022/03/30 09:03:33;;;;;;;28.60;13.82;;;11.00;99.90;;;;;;5036076;28;20488;-54
2022/03/30 09:05:58;;;;;;;40.40;17.55;;;11.30;99.90;;;;;;5050534;28;20112;-54
2022/03/30 09:08:27;;;;;;;30.98;14.48;;;11.30;99.90;;;;;;5050286;28;20037;-56
2022/03/30 09:10:55;;;;;;;33.28;16.13;;;11.50;99.90;;;;;;5050411;28;20025;-57
2022/03/30 09:13:20;;;;;;;34.63;15.90;;;11.70;99.90;;;;;;5050779;28;20025;-51
2022/03/30 09:15:48;;;;;;;31.02;14.77;;;11.90;99.90;;;;;;5051251;28;20051;-52
2022/03/30 09:18:15;;;;;;;28.70;14.60;;;12.10;99.90;;;;;;5050600;28;20025;-53
2022/03/30 09:20:51;;;;;;;29.77;14.90;;;12.50;99.90;;;;;;5051056;28;20092;-49
2022/03/30 09:23:17;;;;;;;38.22;17.80;;;13.00;99.90;;;;;;5050589;28;20021;-51
2022/03/30 09:25:45;;;;;;;33.33;16.15;;;12.70;99.90;;;;;;5034922;28;20036;-49
2022/03/30 09:28:11;;;;;;;33.67;16.73;;;12.80;99.90;;;;;;5050322;28;20116;-52
2022/03/30 09:30:37;;;;;;;40.67;17.30;;;12.70;99.90;;;;;;5033730;28;20115;-52
2022/03/30 09:33:02;;;;;;;31.73;14.90;;;12.60;99.90;;;;;;5050069;28;20028;-55
2022/03/30 09:35:39;;;;;;;29.42;13.75;;;13.10;99.90;;;;;;5050273;28;20025;-54
2022/03/30 09:38:09;;;;;;;32.90;15.98;;;13.20;99.90;;;;;;5034502;28;20029;-54
2022/03/30 09:40:48;;;;;;;34.72;16.95;;;13.20;99.90;;;;;;5049918;28;20060;-52
2022/03/30 09:43:23;;;;;;;33.08;15.45;;;12.70;99.90;;;;;;5049753;28;20032;-53
2022/03/30 09:46:15;;;;;;;31.98;14.80;;;13.60;99.90;;;;;;5034665;28;20025;-54
2022/03/30 09:48:56;;;;;;;30.45;15.15;;;14.00;99.90;;;;;;5034391;28;20028;-56
2022/03/30 09:51:25;;;;;;;34.00;15.45;;;14.00;99.90;;;;;;5049781;28;20033;-55
2022/03/30 09:53:51;;;;;;;36.70;17.13;;;14.20;99.90;;;;;;5034144;28;20028;-54
2022/03/30 09:56:24;;;;;;;30.35;15.57;;;13.90;99.90;;;;;;5034238;28;20032;-54
2022/03/30 09:58:59;;;;;;;34.95;15.95;;;13.90;99.90;;;;;;5049507;28;20029;-52
2022/03/30 10:01:29;;;;;;;34.00;16.98;;;13.60;99.90;;;;;;5033579;28;20544;-56
2022/03/30 10:04:00;;;;;;;28.10;14.38;;;13.60;99.90;;;;;;5049462;28;20057;-55
2022/03/30 10:06:35;;;;;;;30.13;14.67;;;13.60;99.90;;;;;;5033955;28;20021;-53
2022/03/30 10:09:00;;;;;;;32.47;14.90;;;14.00;99.90;;;;;;5050043;28;20615;-56
2022/03/30 10:11:28;;;;;;;27.08;13.27;;;13.90;99.90;;;;;;5049371;28;20022;-53
2022/03/30 10:13:56;;;;;;;29.10;12.98;;;13.50;99.90;;;;;;5034207;28;20395;-49
2022/03/30 10:16:23;;;;;;;27.38;13.45;;;13.40;99.90;;;;;;5049170;28;20069;-50
2022/03/30 10:18:51;;;;;;;24.42;12.50;;;13.20;99.90;;;;;;5033707;28;20480;-53
2022/03/30 10:21:28;;;;;;;24.92;13.05;;;13.80;99.90;;;;;;5049424;28;20079;-53
2022/03/30 10:24:25;;;;;;;30.48;14.13;;;13.90;99.90;;;;;;5032525;28;20029;-51
2022/03/30 10:27:09;;;;;;;26.13;11.50;;;13.00;99.90;;;;;;5032746;28;20033;-49
2022/03/30 10:29:36;;;;;;;31.48;14.30;;;12.80;99.90;;;;;;5033539;28;20025;-52
2022/03/30 10:32:21;;;;;;;34.38;13.93;;;12.80;99.90;;;;;;5049272;28;20017;-49
2022/03/30 10:34:53;;;;;;;35.45;13.60;;;12.70;99.90;;;;;;5048959;28;20022;-52
2022/03/30 10:37:23;;;;;;;;;;;12.50;99.90;;;;;;5032783;28;20030;-51
2022/03/30 10:40:03;;;;;;;31.90;14.27;;;12.60;99.90;;;;;;5033763;28;19996;-51
2022/03/30 10:42:53;;;;;;;36.20;15.90;;;12.90;99.90;;;;;;5033134;28;20103;-53
2022/03/30 10:45:33;;;;;;;30.63;13.85;;;13.00;99.90;;;;;;5033320;28;20028;-53
2022/03/30 10:48:10;;;;;;;34.92;15.77;;;13.20;99.90;;;;;;5033305;28;20025;-52
2022/03/30 10:50:42;;;;;;;31.40;14.57;;;13.40;99.90;;;;;;5033418;28;20017;-52
2022/03/30 10:53:29;;;;;;;42.10;16.35;;;13.50;99.90;;;;;;5032795;28;20031;-51
2022/03/30 10:56:15;;;;;;;30.58;15.05;;;13.10;99.90;;;;;;5032484;28;20026;-53
2022/03/30 10:58:52;;;;;;;28.58;13.13;;;13.20;99.90;;;;;;5033177;28;20108;-56
2022/03/30 11:01:22;;;;;;;28.17;13.95;;;13.20;99.90;;;;;;5032031;28;20032;-53
2022/03/30 11:04:02;;;;;;;33.65;14.48;;;13.30;99.90;;;;;;5049187;28;20032;-54
2022/03/30 11:06:29;;;;;;;29.05;13.93;;;13.30;99.90;;;;;;5048512;28;20029;-52
2022/03/30 11:08:57;;;;;;;32.40;15.60;;;13.40;99.90;;;;;;5048520;28;20026;-53
2022/03/30 11:11:34;;;;;;;30.63;14.38;;;13.70;99.90;;;;;;5031959;28;20045;-53
2022/03/30 11:14:22;;;;;;;32.53;14.27;;;13.60;99.90;;;;;;5035794;28;20025;-54
2022/03/30 11:16:49;;;;;;;30.90;15.00;;;13.10;99.90;;;;;;5035926;28;20120;-55
2022/03/30 11:19:14;;;;;;;26.77;13.20;;;13.10;99.90;;;;;;5037068;28;20036;-54
2022/03/30 11:22:01;;;;;;;27.27;13.50;;;13.00;99.90;;;;;;5037656;28;20026;-56
2022/03/30 11:24:26;;;;;;;29.88;13.07;;;13.30;99.90;;;;;;5053045;28;20029;-53
2022/03/30 11:26:52;;;;;;;32.15;13.80;;;13.30;99.90;;;;;;5036388;28;20369;-53
2022/03/30 11:29:39;;;;;;;29.52;13.35;;;13.00;99.90;;;;;;5035107;28;20131;-53
2022/03/30 11:32:28;;;;;;;27.63;13.23;;;12.80;99.90;;;;;;5036739;28;20022;-52
2022/03/30 11:34:58;;;;;;;31.77;12.63;;;12.70;99.90;;;;;;5037001;28;20052;-53
2022/03/30 11:37:30;;;;;;;26.58;12.88;;;13.30;99.90;;;;;;5036855;28;20502;-55
2022/03/30 11:40:05;;;;;;;32.13;13.70;;;13.70;99.90;;;;;;5035510;28;20032;-53
2022/03/30 11:42:31;;;;;;;24.13;10.88;;;13.60;99.90;;;;;;5036724;28;20025;-55
2022/03/30 11:45:13;;;;;;;29.67;12.75;;;13.90;99.90;;;;;;5052354;28;20049;-54
2022/03/30 11:47:55;;;;;;;26.42;12.70;;;13.70;99.90;;;;;;5036784;28;20036;-52
2022/03/30 11:50:31;;;;;;;;;;;13.70;99.90;;;;;;5036162;28;20059;-53
2022/03/30 11:53:00;;;;;;;23.63;11.95;;;13.50;99.90;;;;;;5036625;28;19905;-53
2022/03/30 11:55:27;;;;;;;23.50;10.52;;;14.00;99.90;;;;;;5036799;28;20025;-51
2022/03/30 11:57:53;;;;;;;25.15;12.32;;;14.00;99.90;;;;;;5052305;28;20061;-50
2022/03/30 12:00:23;;;;;;;27.77;12.45;;;14.10;99.90;;;;;;5036397;28;20056;-52
2022/03/30 12:02:50;;;;;;;31.13;13.98;;;13.70;99.90;;;;;;5036737;28;20503;-49
2022/03/30 12:05:16;;;;;;;26.60;11.82;;;14.00;99.90;;;;;;5051597;28;20032;-50
2022/03/30 12:07:41;;;;;;;25.10;13.05;;;13.90;99.90;;;;;;5051687;28;20025;-49
2022/03/30 12:10:12;;;;;;;23.85;12.35;;;13.90;99.90;;;;;;5035057;28;20132;-51
2022/03/30 12:12:40;;;;;;;25.92;12.75;;;13.70;99.90;;;;;;5052568;28;20087;-51
2022/03/30 12:15:16;;;;;;;30.77;12.32;;;13.80;99.90;;;;;;5036171;28;20033;-49
2022/03/30 12:17:42;;;;;;;28.48;12.13;;;13.80;99.90;;;;;;5051521;28;20118;-49
2022/03/30 12:20:10;;;;;;;30.77;12.15;;;13.90;99.90;;;;;;5051712;28;20129;-50
2022/03/30 12:22:37;;;;;;;28.65;11.88;;;13.80;99.90;;;;;;5036001;28;20098;-49
2022/03/30 12:25:18;;;;;;;20.65;10.68;;;14.00;99.90;;;;;;5035660;28;20018;-53
2022/03/30 12:27:44;;;;;;;22.50;11.48;;;14.20;99.90;;;;;;5036203;28;20141;-54
2022/03/30 12:30:10;;;;;;;23.80;11.95;;;14.60;99.90;;;;;;5034762;28;20514;-49
2022/03/30 12:32:36;;;;;;;21.90;10.88;;;14.70;99.90;;;;;;5051290;28;20026;-49
2022/03/30 12:35:10;;;;;;;22.92;11.52;;;14.30;99.90;;;;;;5051148;28;20025;-49
2022/03/30 12:37:36;;;;;;;22.83;11.35;;;14.20;99.90;;;;;;5035643;28;20061;-49
2022/03/30 12:40:11;;;;;;;25.63;11.60;;;14.30;99.90;;;;;;5051087;28;20025;-48
2022/03/30 12:42:37;;;;;;;24.55;11.15;;;13.90;99.90;;;;;;5050827;28;20022;-48
2022/03/30 12:45:10;;;;;;;28.08;11.70;;;13.50;99.90;;;;;;5035480;28;20049;-50